createdAt,value
2022-10-17T00:05:07.666Z,48.36
2022-10-17T00:10:29.458Z,48.13
2022-10-17T00:15:51.259Z,47.92
2022-10-17T00:21:17.582Z,48.33
2022-10-17T00:26:39.240Z,48.18
2022-10-17T00:32:00.872Z,47.93
2022-10-17T00:37:22.508Z,47.94
2022-10-17T00:42:44.266Z,47.92
2022-10-17T00:48:09.065Z,47.89
2022-10-17T00:53:30.928Z,48.14
2022-10-17T00:58:52.707Z,48.34
2022-10-17T01:04:14.622Z,48.24
2022-10-17T01:09:37.242Z,48.10
2022-10-17T01:15:22.964Z,48.30
2022-10-17T01:21:16.450Z,47.92
2022-10-17T01:26:44.015Z,47.90
2022-10-17T01:32:28.327Z,48.05
2022-10-17T01:38:11.446Z,48.27
2022-10-17T01:43:59.287Z,48.37
2022-10-17T01:49:25.585Z,48.30
2022-10-17T01:54:52.945Z,48.08
2022-10-17T02:00:19.808Z,47.90
2022-10-17T02:05:43.154Z,48.31
2022-10-17T02:11:12.772Z,48.25
2022-10-17T02:17:06.747Z,47.83
2022-10-17T02:22:43.823Z,47.87
2022-10-17T02:28:29.186Z,48.04
2022-10-17T02:33:59.977Z,48.22
2022-10-17T02:39:23.625Z,48.27
2022-10-17T02:44:46.483Z,48.02
2022-10-17T02:50:08.561Z,47.85
2022-10-17T02:55:39.274Z,47.79
2022-10-17T03:01:01.262Z,48.02
2022-10-17T03:06:22.891Z,48.04
2022-10-17T03:11:44.572Z,48.28
2022-10-17T03:17:06.274Z,48.02
2022-10-17T03:22:28.203Z,48.01
2022-10-17T03:27:50.259Z,47.87
2022-10-17T03:33:12.079Z,48.30
2022-10-17T03:38:34.683Z,48.30
2022-10-17T03:43:56.434Z,48.25
2022-10-17T03:49:18.075Z,48.02
2022-10-17T03:54:40.169Z,47.74
2022-10-17T04:00:02.124Z,48.22
2022-10-17T04:05:23.877Z,48.02
2022-10-17T04:10:45.648Z,48.26
2022-10-17T04:16:11.979Z,48.02
2022-10-17T04:21:33.635Z,48.04
2022-10-17T04:26:55.413Z,47.88
2022-10-17T04:32:17.383Z,48.06
2022-10-17T04:37:39.045Z,48.05
2022-10-17T04:43:00.888Z,47.84
2022-10-17T04:48:22.671Z,47.80
2022-10-17T04:53:45.143Z,48.25
2022-10-17T04:59:06.887Z,48.17
2022-10-17T05:04:28.555Z,47.88
2022-10-17T05:09:50.211Z,48.28
2022-10-17T05:15:11.907Z,48.04
2022-10-17T05:20:33.898Z,48.36
2022-10-17T05:25:56.032Z,47.91
2022-10-17T05:31:17.998Z,48.22
2022-10-17T05:36:39.644Z,48.14
2022-10-17T05:42:01.416Z,47.90
2022-10-17T05:47:23.098Z,48.13
2022-10-17T05:52:46.512Z,48.15
2022-10-17T05:58:11.761Z,47.89
2022-10-17T06:03:39.615Z,48.15
2022-10-17T06:09:01.285Z,48.47
2022-10-17T06:14:22.973Z,48.40
2022-10-17T06:19:47.803Z,48.42
2022-10-17T06:25:09.886Z,48.20
2022-10-17T06:30:31.680Z,48.02
2022-10-17T06:35:54.873Z,48.10
2022-10-17T06:41:19.372Z,48.18
2022-10-17T06:46:41.201Z,48.00
2022-10-17T06:52:02.939Z,47.98
2022-10-17T06:57:24.691Z,48.46
2022-10-17T07:02:46.348Z,48.26
2022-10-17T07:08:08.888Z,48.38
2022-10-17T07:13:30.937Z,48.31
2022-10-17T07:18:55.038Z,48.33
2022-10-17T07:24:16.777Z,48.30
2022-10-17T07:29:38.512Z,48.12
2022-10-17T07:35:00.152Z,48.49
2022-10-17T07:40:21.853Z,48.26
2022-10-17T07:45:43.491Z,48.48
2022-10-17T07:51:07.609Z,48.01
2022-10-17T07:56:29.838Z,48.51
2022-10-17T08:01:51.521Z,48.16
2022-10-17T08:07:21.868Z,48.44
2022-10-17T08:12:45.088Z,48.40
2022-10-17T08:18:06.759Z,48.49
2022-10-17T08:23:29.342Z,48.17
2022-10-17T08:28:51.025Z,48.34
2022-10-17T08:34:12.723Z,48.39
2022-10-17T08:39:34.352Z,48.45
2022-10-17T08:45:11.087Z,48.17
2022-10-17T08:50:58.144Z,48.33
2022-10-17T08:56:44.438Z,48.42
2022-10-17T09:02:53.352Z,48.42
2022-10-17T09:08:23.402Z,48.23
2022-10-17T09:14:23.767Z,48.15
2022-10-17T09:20:10.111Z,48.15
2022-10-17T09:25:41.829Z,48.21
2022-10-17T09:31:05.754Z,48.46
2022-10-17T09:36:35.121Z,48.15
2022-10-17T09:41:59.577Z,48.40
2022-10-17T09:47:43.634Z,48.42
2022-10-17T09:53:21.637Z,48.41
2022-10-17T09:58:46.864Z,48.47
2022-10-17T10:04:16.539Z,48.40
2022-10-17T10:09:40.214Z,48.19
2022-10-17T10:15:02.281Z,48.39
2022-10-17T10:20:31.569Z,48.17
2022-10-17T10:25:59.258Z,48.11
2022-10-17T10:31:28.283Z,48.29
2022-10-17T10:37:06.569Z,48.23
2022-10-17T10:42:34.623Z,48.47
2022-10-17T10:47:59.479Z,48.06
2022-10-17T10:53:35.123Z,48.47
2022-10-17T10:59:09.199Z,48.06
2022-10-17T11:04:42.489Z,48.13
2022-10-17T11:10:25.817Z,48.11
2022-10-17T11:15:53.621Z,48.33
2022-10-17T11:21:37.246Z,48.40
2022-10-17T11:27:01.366Z,48.53
2022-10-17T11:32:40.290Z,48.55
2022-10-17T11:38:04.612Z,48.27
2022-10-17T11:43:32.706Z,48.58
2022-10-17T11:49:05.408Z,48.09
2022-10-17T11:54:35.119Z,48.22
2022-10-17T12:00:35.839Z,48.31
2022-10-17T12:06:08.545Z,48.27
2022-10-17T12:11:36.406Z,48.32
2022-10-17T12:16:58.123Z,48.58
2022-10-17T12:22:28.703Z,48.55
2022-10-17T12:27:51.336Z,48.60
2022-10-17T12:33:12.959Z,48.13
2022-10-17T12:38:34.603Z,48.59
2022-10-17T12:43:56.436Z,48.22
2022-10-17T12:49:38.278Z,48.45
2022-10-17T12:55:13.049Z,48.23
2022-10-17T13:01:11.552Z,48.30
2022-10-17T13:06:38.032Z,48.60
2022-10-17T13:12:05.336Z,48.75
2022-10-17T13:17:30.860Z,48.66
2022-10-17T13:22:52.843Z,48.69
2022-10-17T13:28:14.546Z,48.57
2022-10-17T13:33:39.424Z,48.51
2022-10-17T13:39:12.275Z,48.76
2022-10-17T13:44:38.531Z,48.95
2022-10-17T13:50:12.753Z,48.62
2022-10-17T13:56:26.377Z,48.59
2022-10-17T14:01:45.206Z,49.02
2022-10-17T14:07:19.533Z,48.76
2022-10-17T14:12:43.648Z,48.56
2022-10-17T14:18:09.426Z,48.95
2022-10-17T14:23:31.093Z,49.00
2022-10-17T14:29:07.287Z,48.72
2022-10-17T14:34:31.276Z,48.60
2022-10-17T14:39:55.285Z,48.61
2022-10-17T14:45:23.799Z,48.94
2022-10-17T14:51:07.154Z,48.73
2022-10-17T14:56:37.643Z,48.95
2022-10-17T15:01:59.319Z,48.83
2022-10-17T15:07:22.296Z,48.65
2022-10-17T15:12:52.033Z,48.58
2022-10-17T15:18:20.773Z,48.72
2022-10-17T15:23:43.143Z,48.65
2022-10-17T15:29:05.253Z,49.00
2022-10-17T15:34:26.953Z,48.74
2022-10-17T15:39:53.595Z,48.66
2022-10-17T15:45:17.937Z,48.84
2022-10-17T15:50:39.710Z,49.00
2022-10-17T15:56:02.236Z,49.35
2022-10-17T16:01:27.130Z,49.67
2022-10-17T16:06:49.401Z,49.99
2022-10-17T16:12:15.654Z,49.83
2022-10-17T16:17:37.389Z,50.15
2022-10-17T16:23:02.452Z,50.19
2022-10-17T16:28:24.226Z,49.83
2022-10-17T16:33:46.002Z,49.97
2022-10-17T16:39:08.026Z,49.81
2022-10-17T16:44:29.693Z,49.81
2022-10-17T16:49:51.444Z,49.54
2022-10-17T16:55:13.554Z,49.58
2022-10-17T17:00:35.314Z,49.40
2022-10-17T17:05:57.229Z,49.33
2022-10-17T17:11:22.818Z,49.47
2022-10-17T17:16:44.553Z,49.23
2022-10-17T17:22:06.203Z,49.80
2022-10-17T17:27:29.117Z,50.14
2022-10-17T17:32:51.057Z,49.98
2022-10-17T17:38:12.731Z,50.28
2022-10-17T17:43:35.810Z,49.82
2022-10-17T17:48:57.560Z,49.18
2022-10-17T17:54:19.236Z,48.97
2022-10-17T17:59:41.618Z,49.10
2022-10-17T18:05:03.392Z,49.48
2022-10-17T18:10:25.115Z,49.21
2022-10-17T18:15:47.093Z,49.29
2022-10-17T18:21:09.962Z,49.63
2022-10-17T18:26:31.913Z,49.16
2022-10-17T18:31:53.626Z,49.39
2022-10-17T18:37:15.414Z,49.30
2022-10-17T18:42:37.080Z,49.34
2022-10-17T18:47:58.768Z,49.69
2022-10-17T18:53:20.397Z,50.00
2022-10-17T18:58:42.839Z,49.90
2022-10-17T19:04:04.764Z,50.22
2022-10-17T19:09:26.447Z,49.91
2022-10-17T19:14:50.939Z,49.95
2022-10-17T19:20:12.621Z,50.47
2022-10-17T19:25:34.371Z,50.17
2022-10-17T19:30:56.065Z,50.16
2022-10-17T19:36:18.077Z,50.03
2022-10-17T19:41:44.141Z,50.00
2022-10-17T19:47:05.789Z,49.86
2022-10-17T19:52:28.307Z,49.91
2022-10-17T19:57:50.176Z,49.49
2022-10-17T20:03:11.822Z,49.41
2022-10-17T20:08:33.558Z,49.27
2022-10-17T20:13:56.465Z,48.82
2022-10-17T20:19:18.719Z,49.01
2022-10-17T20:24:40.437Z,48.90
2022-10-17T20:30:02.647Z,49.23
2022-10-17T20:35:24.736Z,49.39
2022-10-17T20:40:46.476Z,49.36
2022-10-17T20:46:29.571Z,49.11
2022-10-17T20:51:57.241Z,49.13
2022-10-17T20:57:18.873Z,49.32
2022-10-17T21:02:40.505Z,49.22
2022-10-17T21:08:02.834Z,49.43
2022-10-17T21:13:24.486Z,49.23
2022-10-17T21:18:46.634Z,49.37
2022-10-17T21:24:14.735Z,49.59
2022-10-17T21:29:36.393Z,49.83
2022-10-17T21:34:58.147Z,49.81
2022-10-17T21:40:19.935Z,49.38
2022-10-17T21:45:41.802Z,49.82
2022-10-17T21:51:05.906Z,49.59
2022-10-17T21:56:29.074Z,50.01
2022-10-17T22:01:50.864Z,49.86
2022-10-17T22:07:12.545Z,49.94
2022-10-17T22:12:34.263Z,49.54
2022-10-17T22:17:56.438Z,49.79
2022-10-17T22:23:18.113Z,49.71
2022-10-17T22:28:41.208Z,49.58
2022-10-17T22:34:05.208Z,49.57
2022-10-17T22:39:27.271Z,49.76
2022-10-17T22:44:49.864Z,49.32
2022-10-17T22:50:11.569Z,49.58
2022-10-17T22:55:33.229Z,49.33
2022-10-17T23:00:55.716Z,49.57
2022-10-17T23:06:18.047Z,49.59
2022-10-17T23:11:39.700Z,49.59
2022-10-17T23:17:01.405Z,49.54
2022-10-17T23:22:23.168Z,49.25
2022-10-17T23:27:44.895Z,49.21
2022-10-17T23:33:07.347Z,49.81
2022-10-17T23:38:29.088Z,49.57
2022-10-17T23:43:51.410Z,49.48
2022-10-17T23:49:13.188Z,49.53
2022-10-17T23:54:34.993Z,49.55
2022-10-17T23:59:56.711Z,49.56
